Aeroporto :
LOGIN :

Iscrizione | Disclaimer

   EN    FR    IT 

 










Sommario :    VFR   VFR Marginale   IFR   IFR Intensivo   IFR Molto Intensivo
Visibilità : 
Base nubi : 
>= 8 km
>= 3000ft
5 / 8 km
1000 / 3000 ft
1500m / 5 km
500 / 1000 ft
800 / 1500m
200 / 500 ft
< 800m
< 200 ft
Simboli :   Temporali  Nebbia  Neve Forte  Precipitazioni Forti  Vento > 20 kt
SIGMETs :   Varie  Temporali  Ghiacco  Turbolenza  Onda orograficha  Ceneri Vulcaniche







- Altitudine del aeroporto : 157 ft
- Codice IATA : LIL
- Carte del aeroporto


LFQQ - Lille Lesquin

ULTIMO METAR :
  • 170330Z AUTO 14003KT 7000 NSC 03/02 Q1021 TEMPO 4000 BR

METARs OBSOLETI :
  • 170300Z AUTO 13002KT 7000 NSC 04/02 Q1021 TEMPO 4000 BR
  • 170230Z AUTO 11002KT 7000 NSC 04/02 Q1022 TEMPO 4000 BR
  • 170200Z AUTO 12003KT 7000 NSC 04/02 Q1022 TEMPO 4000 BR
  • 170130Z AUTO VRB02KT 7000 NSC 04/03 Q1022 TEMPO 4000 BR
  • 170100Z AUTO 14004KT 7000 NSC 05/03 Q1022 TEMPO 4000 BR

TAF TAF LFQQ
Valido dal 17 a 00 ore il 18 a 06 ore UTC


162300Z 1700/1806 15003KT 8000 NSC
TEMPO 1701/1707 4000 BR
FM170900 17010KT CAVOK
PROB30 1801/1806 4000 BR
ATIS : +33 3 20 16 19 54
Nessun NOTAM noto per questo aeroporto.



MetMap, La meteo Aeronautica in un colpo d'occhio ! - Copyright ORBIFLY Dicembre 2007 - Disclaimer

ORBIFLY MET'MAP TEAM :

Programmazione e sviluppo : Alexandra Zaïnal
Concezione e sviluppo : Baudouin d'Aumeries
Co-Programmazione e sviluppo : Marc-Olivier Méhu
Supporto tecnico e logistico : Manuel Goepfert
Aiuto per la traduzione : Arnaldo La Scala

Contatto : metmap@orbifly.com




FONTI E CREDITI :

   NOAA